createdAt,value
2023-01-09T00:00:41.625Z,5.16
2023-01-09T00:01:43.230Z,5.17
2023-01-09T00:02:40.865Z,5.11
2023-01-09T00:03:37.671Z,5.10
2023-01-09T00:04:34.462Z,5.14
2023-01-09T00:05:31.199Z,5.12
2023-01-09T00:06:27.910Z,5.14
2023-01-09T00:07:24.600Z,5.15
2023-01-09T00:08:21.307Z,5.09
2023-01-09T00:09:18.033Z,5.05
2023-01-09T00:10:15.562Z,5.06
2023-01-09T00:11:12.429Z,5.09
2023-01-09T00:12:09.168Z,5.06
2023-01-09T00:13:05.879Z,5.07
2023-01-09T00:14:02.625Z,5.11
2023-01-09T00:14:59.296Z,5.09
2023-01-09T00:15:55.999Z,5.08
2023-01-09T00:16:55.072Z,5.10
2023-01-09T00:17:51.852Z,5.09
2023-01-09T00:18:48.509Z,5.08
2023-01-09T00:19:45.227Z,5.06
2023-01-09T00:20:42.106Z,4.97
2023-01-09T00:21:38.862Z,4.95
2023-01-09T00:22:36.485Z,4.93
2023-01-09T00:23:33.245Z,4.91
2023-01-09T00:24:30.206Z,4.89
2023-01-09T00:25:27.101Z,4.89
2023-01-09T00:26:23.924Z,4.87
2023-01-09T00:27:20.712Z,4.86
2023-01-09T00:28:17.377Z,4.83
2023-01-09T00:29:14.339Z,4.82
2023-01-09T00:30:11.488Z,4.80
2023-01-09T00:31:08.611Z,4.81
2023-01-09T00:32:10.039Z,4.79
2023-01-09T00:33:06.819Z,4.80
2023-01-09T00:34:05.854Z,4.78
2023-01-09T00:35:02.590Z,4.83
2023-01-09T00:35:59.307Z,4.82
2023-01-09T00:36:56.539Z,4.83
2023-01-09T00:37:53.243Z,4.83
2023-01-09T00:38:50.448Z,4.86
2023-01-09T00:39:47.216Z,4.87
2023-01-09T00:40:44.119Z,4.86
2023-01-09T00:41:46.976Z,4.87
2023-01-09T00:42:44.916Z,4.88
2023-01-09T00:43:47.001Z,4.89
2023-01-09T00:44:46.979Z,4.91
2023-01-09T00:45:43.711Z,4.91
2023-01-09T00:46:43.533Z,4.87
2023-01-09T00:47:43.041Z,4.86
2023-01-09T00:48:40.275Z,4.82
2023-01-09T00:49:36.982Z,4.80
2023-01-09T00:50:33.890Z,4.80
2023-01-09T00:51:30.560Z,4.80
2023-01-09T00:52:28.030Z,4.81
2023-01-09T00:53:26.790Z,4.78
2023-01-09T00:54:23.756Z,4.80
2023-01-09T00:55:20.729Z,4.79
2023-01-09T00:56:18.527Z,4.79
2023-01-09T00:57:15.238Z,4.77
2023-01-09T00:58:11.962Z,4.77
2023-01-09T00:59:08.708Z,4.77
2023-01-09T01:00:05.907Z,4.75
2023-01-09T01:01:03.021Z,4.75
2023-01-09T01:02:00.101Z,4.76
2023-01-09T01:02:57.049Z,4.78
2023-01-09T01:03:53.864Z,4.76
2023-01-09T01:05:09.088Z,4.78
2023-01-09T01:06:24.257Z,4.78
2023-01-09T01:07:39.164Z,4.77
2023-01-09T01:08:35.937Z,4.77
2023-01-09T01:09:32.558Z,4.77
2023-01-09T01:10:29.254Z,4.73
2023-01-09T01:11:26.005Z,4.72
2023-01-09T01:12:23.035Z,4.72
2023-01-09T01:13:19.750Z,4.74
2023-01-09T01:14:16.587Z,4.76
2023-01-09T01:15:13.500Z,4.74
2023-01-09T01:16:11.940Z,4.76
2023-01-09T01:17:08.850Z,4.76
2023-01-09T01:18:05.991Z,4.75
2023-01-09T01:19:02.986Z,4.74
2023-01-09T01:19:59.923Z,4.73
2023-01-09T01:20:56.663Z,4.73
2023-01-09T01:21:53.395Z,4.72
2023-01-09T01:22:50.307Z,4.73
2023-01-09T01:23:47.227Z,4.73
2023-01-09T01:24:44.069Z,4.75
2023-01-09T01:25:41.212Z,4.77
2023-01-09T01:26:37.978Z,4.78
2023-01-09T01:27:34.753Z,4.79
2023-01-09T01:28:31.506Z,4.85
2023-01-09T01:29:28.141Z,4.87
2023-01-09T01:30:24.830Z,4.91
2023-01-09T01:31:21.554Z,4.98
2023-01-09T01:32:18.336Z,4.97
2023-01-09T01:33:15.081Z,4.98
2023-01-09T01:34:11.685Z,4.98
2023-01-09T01:35:08.745Z,5.00
2023-01-09T01:36:07.200Z,4.94
2023-01-09T01:37:04.047Z,5.00
2023-01-09T01:38:00.765Z,5.02
2023-01-09T01:38:57.381Z,5.03
2023-01-09T01:39:54.139Z,4.99
2023-01-09T01:40:54.264Z,4.99
2023-01-09T01:41:50.917Z,4.99
2023-01-09T01:42:49.217Z,5.02
2023-01-09T01:43:51.194Z,5.02
2023-01-09T01:45:10.946Z,4.95
2023-01-09T01:46:07.625Z,4.97
2023-01-09T01:47:04.421Z,4.98
2023-01-09T01:48:09.496Z,4.92
2023-01-09T01:49:14.064Z,4.99
2023-01-09T01:50:15.371Z,5.00
2023-01-09T01:51:12.106Z,5.04
2023-01-09T01:52:08.798Z,5.09
2023-01-09T01:53:25.719Z,5.14
2023-01-09T01:54:24.824Z,5.07
2023-01-09T01:55:21.594Z,5.10
2023-01-09T01:56:25.342Z,5.10
2023-01-09T01:57:22.071Z,5.14
2023-01-09T01:58:18.824Z,5.15
2023-01-09T01:59:37.597Z,5.16
2023-01-09T02:00:36.830Z,5.14
2023-01-09T02:01:33.885Z,5.09
2023-01-09T02:02:31.306Z,5.08
2023-01-09T02:03:28.478Z,5.12
2023-01-09T02:04:25.309Z,5.11
2023-01-09T02:05:22.220Z,5.15
2023-01-09T02:06:19.001Z,5.18
2023-01-09T02:07:15.623Z,5.15
2023-01-09T02:08:12.617Z,5.15
2023-01-09T02:09:09.251Z,5.14
2023-01-09T02:10:06.319Z,5.14
2023-01-09T02:11:05.192Z,5.13
2023-01-09T02:12:15.412Z,5.12
2023-01-09T02:13:12.064Z,5.07
2023-01-09T02:14:08.768Z,5.05
2023-01-09T02:15:10.964Z,5.07
2023-01-09T02:16:07.884Z,5.09
2023-01-09T02:17:14.842Z,5.09
2023-01-09T02:18:18.470Z,5.00
2023-01-09T02:19:39.725Z,4.97
2023-01-09T02:20:48.773Z,4.90
2023-01-09T02:22:12.013Z,4.90
2023-01-09T02:23:12.280Z,4.88
2023-01-09T02:24:32.873Z,4.84
2023-01-09T02:25:47.470Z,4.80
2023-01-09T02:26:53.218Z,4.79
2023-01-09T02:28:23.223Z,4.81
2023-01-09T02:29:59.414Z,4.78
2023-01-09T02:30:57.390Z,4.82
2023-01-09T02:32:14.991Z,4.81
2023-01-09T02:33:23.852Z,4.83
2023-01-09T02:34:25.389Z,4.83
2023-01-09T02:35:34.813Z,4.89
2023-01-09T02:36:44.800Z,4.91
2023-01-09T02:38:03.147Z,4.95
2023-01-09T02:39:18.295Z,4.92
2023-01-09T02:40:29.785Z,4.94
2023-01-09T02:41:36.478Z,4.95
2023-01-09T02:42:33.281Z,4.92
2023-01-09T02:43:30.318Z,4.92
2023-01-09T02:44:28.257Z,4.91
2023-01-09T02:45:25.070Z,4.88
2023-01-09T02:46:22.661Z,4.85
2023-01-09T02:47:20.107Z,4.84
2023-01-09T02:48:16.822Z,4.85
2023-01-09T02:49:14.227Z,4.82
2023-01-09T02:50:13.972Z,4.82
2023-01-09T02:51:18.578Z,4.78
2023-01-09T02:52:24.190Z,4.75
2023-01-09T02:53:47.670Z,4.76
2023-01-09T02:55:06.766Z,4.74
2023-01-09T02:56:14.756Z,4.75
2023-01-09T02:57:16.439Z,4.72
2023-01-09T02:58:19.010Z,4.66
2023-01-09T02:59:23.117Z,4.63
2023-01-09T03:00:34.665Z,4.62
2023-01-09T03:02:20.391Z,4.58
2023-01-09T03:03:35.696Z,4.54
2023-01-09T03:04:59.455Z,4.50
2023-01-09T03:06:22.601Z,4.47
2023-01-09T03:07:22.875Z,4.44
2023-01-09T03:08:20.847Z,4.39
2023-01-09T03:09:20.520Z,4.38
2023-01-09T03:10:28.501Z,4.34
2023-01-09T03:11:25.549Z,4.29
2023-01-09T03:12:23.042Z,4.27
2023-01-09T03:13:20.338Z,4.24
2023-01-09T03:14:21.425Z,4.24
2023-01-09T03:15:18.161Z,4.23
2023-01-09T03:16:18.684Z,4.21
2023-01-09T03:17:19.159Z,4.22
2023-01-09T03:18:16.118Z,4.19
2023-01-09T03:19:15.707Z,4.21
2023-01-09T03:20:12.797Z,4.22
2023-01-09T03:21:09.512Z,4.22
2023-01-09T03:22:06.563Z,4.22
2023-01-09T03:23:04.973Z,4.21
2023-01-09T03:24:01.930Z,4.19
2023-01-09T03:24:58.633Z,4.20
2023-01-09T03:25:55.328Z,4.23
2023-01-09T03:26:54.264Z,4.26
2023-01-09T03:27:53.874Z,4.24
2023-01-09T03:28:50.671Z,4.22
2023-01-09T03:29:47.506Z,4.18
2023-01-09T03:30:44.167Z,4.22
2023-01-09T03:31:40.877Z,4.20
2023-01-09T03:32:37.624Z,4.18
2023-01-09T03:33:34.374Z,4.16
2023-01-09T03:34:31.091Z,4.14
2023-01-09T03:35:27.886Z,4.13
2023-01-09T03:36:25.261Z,4.16
2023-01-09T03:37:22.092Z,4.15
2023-01-09T03:38:18.765Z,4.15
2023-01-09T03:39:15.433Z,4.13
2023-01-09T03:40:12.162Z,4.11
2023-01-09T03:41:08.835Z,4.12
2023-01-09T03:42:05.576Z,4.10
2023-01-09T03:43:02.390Z,4.09
2023-01-09T03:43:59.062Z,4.10
2023-01-09T03:44:55.897Z,4.07
2023-01-09T03:45:52.724Z,4.07
2023-01-09T03:46:50.349Z,4.09
2023-01-09T03:47:47.151Z,4.16
2023-01-09T03:48:43.875Z,4.21
2023-01-09T03:49:40.720Z,4.29
2023-01-09T03:50:37.495Z,4.35
2023-01-09T03:51:34.219Z,4.38
2023-01-09T03:52:30.978Z,4.45
2023-01-09T03:53:28.149Z,4.46
2023-01-09T03:54:24.882Z,4.47
2023-01-09T03:55:21.500Z,4.49
2023-01-09T03:56:18.173Z,4.51
2023-01-09T03:57:14.982Z,4.53
2023-01-09T03:58:11.613Z,4.56
2023-01-09T03:59:08.245Z,4.64
2023-01-09T04:00:05.698Z,4.70
2023-01-09T04:01:03.834Z,4.77
2023-01-09T04:02:03.492Z,4.74
2023-01-09T04:03:00.568Z,4.79
2023-01-09T04:03:57.328Z,4.81
2023-01-09T04:04:54.024Z,4.83
2023-01-09T04:05:53.878Z,4.84
2023-01-09T04:06:50.574Z,4.83
2023-01-09T04:07:47.511Z,4.83
2023-01-09T04:08:46.368Z,4.87
2023-01-09T04:09:43.228Z,4.90
2023-01-09T04:10:40.048Z,4.95
2023-01-09T04:11:36.932Z,5.00
2023-01-09T04:12:33.567Z,5.02
2023-01-09T04:13:30.254Z,5.04
2023-01-09T04:14:26.976Z,5.05
2023-01-09T04:15:23.895Z,5.08
2023-01-09T04:16:20.673Z,5.11
2023-01-09T04:17:17.478Z,5.12
2023-01-09T04:18:14.441Z,5.15
2023-01-09T04:19:11.227Z,5.18
2023-01-09T04:20:08.898Z,5.22
2023-01-09T04:21:05.615Z,5.20
2023-01-09T04:22:02.381Z,5.20
2023-01-09T04:22:59.706Z,5.16
2023-01-09T04:23:56.516Z,5.13
2023-01-09T04:24:53.258Z,5.16
2023-01-09T04:25:50.048Z,5.16
2023-01-09T04:26:46.735Z,5.19
2023-01-09T04:27:43.609Z,5.24
2023-01-09T04:28:40.269Z,5.22
2023-01-09T04:29:37.016Z,5.25
2023-01-09T04:30:33.688Z,5.28
2023-01-09T04:31:30.494Z,5.30
2023-01-09T04:32:27.752Z,5.35
2023-01-09T04:33:24.458Z,5.33
2023-01-09T04:34:25.560Z,5.31
2023-01-09T04:35:22.342Z,5.25
2023-01-09T04:36:19.208Z,5.25
2023-01-09T04:37:15.861Z,5.24
2023-01-09T04:38:12.579Z,5.24
2023-01-09T04:39:09.633Z,5.24
2023-01-09T04:40:09.028Z,5.24
2023-01-09T04:41:05.876Z,5.24
2023-01-09T04:42:02.772Z,5.28
2023-01-09T04:42:59.489Z,5.30
2023-01-09T04:43:56.257Z,5.34
2023-01-09T04:44:54.249Z,5.37
2023-01-09T04:45:51.037Z,5.34
2023-01-09T04:46:47.842Z,5.34
2023-01-09T04:47:44.847Z,5.38
2023-01-09T04:48:41.605Z,5.42
2023-01-09T04:49:38.358Z,5.41
2023-01-09T04:50:35.205Z,5.39
2023-01-09T04:51:31.815Z,5.40
2023-01-09T04:52:28.478Z,5.42
2023-01-09T04:53:25.232Z,5.40
2023-01-09T04:54:22.061Z,5.35
2023-01-09T04:55:18.792Z,5.34
2023-01-09T04:56:15.699Z,5.32
2023-01-09T04:57:12.382Z,5.32
2023-01-09T04:58:09.239Z,5.32
2023-01-09T04:59:06.029Z,5.35
2023-01-09T05:00:03.291Z,5.33
2023-01-09T05:01:00.086Z,5.29
2023-01-09T05:01:58.338Z,5.28
2023-01-09T05:02:55.101Z,5.29
2023-01-09T05:03:51.782Z,5.33
2023-01-09T05:04:48.442Z,5.39
2023-01-09T05:05:45.100Z,5.42
2023-01-09T05:06:41.941Z,5.45
2023-01-09T05:07:38.727Z,5.47
2023-01-09T05:08:35.425Z,5.48
2023-01-09T05:09:32.127Z,5.51
2023-01-09T05:10:28.997Z,5.52
2023-01-09T05:11:25.824Z,5.44
2023-01-09T05:12:22.583Z,5.39
2023-01-09T05:13:19.328Z,5.38
2023-01-09T05:14:16.082Z,5.40
2023-01-09T05:15:12.925Z,5.37
2023-01-09T05:16:09.869Z,5.34
2023-01-09T05:17:06.749Z,5.38
2023-01-09T05:18:03.700Z,5.38
2023-01-09T05:19:00.584Z,5.38
2023-01-09T05:19:57.375Z,5.38
2023-01-09T05:20:54.075Z,5.34
2023-01-09T05:21:50.681Z,5.37
2023-01-09T05:22:47.353Z,5.41
2023-01-09T05:23:44.059Z,5.42
2023-01-09T05:24:40.814Z,5.45
2023-01-09T05:25:37.492Z,5.44
2023-01-09T05:26:34.133Z,5.47
2023-01-09T05:27:31.042Z,5.53
2023-01-09T05:28:27.737Z,5.53
2023-01-09T05:29:24.373Z,5.52
2023-01-09T05:30:20.993Z,5.53
2023-01-09T05:31:18.614Z,5.56
2023-01-09T05:32:15.356Z,5.58
2023-01-09T05:33:12.127Z,5.58
2023-01-09T05:34:08.787Z,5.59
2023-01-09T05:35:05.918Z,5.65
2023-01-09T05:36:02.652Z,5.60
2023-01-09T05:36:59.418Z,5.58
2023-01-09T05:37:56.695Z,5.57
2023-01-09T05:38:53.523Z,5.56
2023-01-09T05:39:50.225Z,5.56
2023-01-09T05:40:46.966Z,5.60
2023-01-09T05:41:43.719Z,5.60
2023-01-09T05:42:40.471Z,5.62
2023-01-09T05:43:37.191Z,5.61
2023-01-09T05:44:33.870Z,5.64
2023-01-09T05:45:30.682Z,5.63
2023-01-09T05:46:27.382Z,5.57
2023-01-09T05:47:24.226Z,5.53
2023-01-09T05:48:20.893Z,5.52
2023-01-09T05:49:17.628Z,5.47
2023-01-09T05:50:14.729Z,5.44
2023-01-09T05:51:12.122Z,5.45
2023-01-09T05:52:08.849Z,5.40
2023-01-09T05:53:06.703Z,5.42
2023-01-09T05:54:04.979Z,5.39
2023-01-09T05:55:01.693Z,5.40
2023-01-09T05:55:58.357Z,5.43
2023-01-09T05:56:55.046Z,5.47
2023-01-09T05:57:51.929Z,5.46
2023-01-09T05:58:48.609Z,5.47
2023-01-09T05:59:45.381Z,5.48
2023-01-09T06:00:42.188Z,5.49
2023-01-09T06:01:38.818Z,5.45
2023-01-09T06:02:35.610Z,5.46
2023-01-09T06:03:32.485Z,5.47
2023-01-09T06:04:30.022Z,5.46
2023-01-09T06:05:26.721Z,5.49
2023-01-09T06:06:24.277Z,5.51
2023-01-09T06:07:23.360Z,5.52
2023-01-09T06:08:20.101Z,5.56
2023-01-09T06:09:16.834Z,5.57
2023-01-09T06:10:14.206Z,5.60
2023-01-09T06:11:10.848Z,5.64
2023-01-09T06:12:07.603Z,5.66
2023-01-09T06:13:04.730Z,5.68
2023-01-09T06:14:02.167Z,5.66
2023-01-09T06:14:58.914Z,5.64
2023-01-09T06:15:55.733Z,5.66
2023-01-09T06:16:52.475Z,5.67
2023-01-09T06:17:49.166Z,5.69
2023-01-09T06:18:46.317Z,5.67
2023-01-09T06:19:43.139Z,5.65
2023-01-09T06:20:39.834Z,5.65
2023-01-09T06:21:36.619Z,5.66
2023-01-09T06:22:33.333Z,5.71
2023-01-09T06:23:30.015Z,5.76
2023-01-09T06:24:26.727Z,5.78
2023-01-09T06:25:23.628Z,5.79
2023-01-09T06:26:20.334Z,5.83
2023-01-09T06:27:17.102Z,5.87
2023-01-09T06:28:13.798Z,5.88
2023-01-09T06:29:10.475Z,5.89
2023-01-09T06:30:07.889Z,5.85
2023-01-09T06:31:05.368Z,5.85
2023-01-09T06:32:02.318Z,5.87
2023-01-09T06:32:59.183Z,5.87
2023-01-09T06:33:55.919Z,5.89
2023-01-09T06:34:52.582Z,5.93
2023-01-09T06:35:49.278Z,5.88
2023-01-09T06:36:45.993Z,5.88
2023-01-09T06:37:42.899Z,5.87
2023-01-09T06:38:39.774Z,5.87
2023-01-09T06:39:36.647Z,5.88
2023-01-09T06:40:33.438Z,5.90
2023-01-09T06:41:30.288Z,5.96
2023-01-09T06:42:27.029Z,5.88
2023-01-09T06:43:23.783Z,5.86
2023-01-09T06:44:20.440Z,5.88
2023-01-09T06:45:17.137Z,5.87
2023-01-09T06:46:13.994Z,5.94
2023-01-09T06:47:10.702Z,5.92
2023-01-09T06:48:07.401Z,5.91
2023-01-09T06:49:04.145Z,5.92
2023-01-09T06:50:00.911Z,5.92
2023-01-09T06:50:57.599Z,5.95
2023-01-09T06:51:54.273Z,5.98
2023-01-09T06:52:50.952Z,5.99
2023-01-09T06:53:47.781Z,6.02
2023-01-09T06:54:44.537Z,6.00
2023-01-09T06:55:41.458Z,6.04
2023-01-09T06:56:38.129Z,6.04
2023-01-09T06:57:34.910Z,6.03
2023-01-09T06:58:31.692Z,6.05
2023-01-09T06:59:28.415Z,6.06
2023-01-09T07:00:25.396Z,6.01
2023-01-09T07:01:22.139Z,6.02
2023-01-09T07:02:20.973Z,6.03
2023-01-09T07:03:19.987Z,6.01
2023-01-09T07:04:17.908Z,6.03
2023-01-09T07:05:14.640Z,6.02
2023-01-09T07:06:11.430Z,6.00
2023-01-09T07:07:08.500Z,6.02
2023-01-09T07:08:05.400Z,6.00
2023-01-09T07:09:02.319Z,5.96
2023-01-09T07:09:59.063Z,5.97
2023-01-09T07:10:55.752Z,5.97
2023-01-09T07:11:52.714Z,5.94
2023-01-09T07:12:49.511Z,5.93
2023-01-09T07:13:46.376Z,5.92
2023-01-09T07:14:43.119Z,5.91
2023-01-09T07:15:39.986Z,5.93
2023-01-09T07:16:36.794Z,5.92
2023-01-09T07:17:33.558Z,5.94
2023-01-09T07:18:30.393Z,5.98
2023-01-09T07:19:27.504Z,6.00
2023-01-09T07:20:24.248Z,6.00
2023-01-09T07:21:20.993Z,5.98
2023-01-09T07:22:17.971Z,5.97
2023-01-09T07:23:15.478Z,5.94
2023-01-09T07:24:12.218Z,5.91
2023-01-09T07:25:08.919Z,5.90
2023-01-09T07:26:05.706Z,5.90
2023-01-09T07:27:02.770Z,5.94
2023-01-09T07:27:59.649Z,5.94
2023-01-09T07:28:56.469Z,5.96
2023-01-09T07:29:53.492Z,5.96
2023-01-09T07:30:50.495Z,5.99
2023-01-09T07:31:47.872Z,5.96
2023-01-09T07:32:44.757Z,5.98
2023-01-09T07:33:41.563Z,6.03
2023-01-09T07:34:38.289Z,5.97
2023-01-09T07:35:35.133Z,6.03
2023-01-09T07:36:31.843Z,6.01
2023-01-09T07:37:28.573Z,6.00
2023-01-09T07:38:25.534Z,6.00
2023-01-09T07:39:22.421Z,6.01
2023-01-09T07:40:19.277Z,6.02
2023-01-09T07:41:16.009Z,6.03
2023-01-09T07:42:12.748Z,6.01
2023-01-09T07:43:09.527Z,6.04
2023-01-09T07:44:08.992Z,6.10
2023-01-09T07:45:07.329Z,6.09
2023-01-09T07:46:04.379Z,6.10
2023-01-09T07:47:01.519Z,6.09
2023-01-09T07:47:58.195Z,6.07
2023-01-09T07:48:54.924Z,6.11
2023-01-09T07:49:51.590Z,6.16
2023-01-09T07:50:48.341Z,6.11
2023-01-09T07:51:45.758Z,6.12
2023-01-09T07:52:44.730Z,6.11
2023-01-09T07:53:41.433Z,6.11
2023-01-09T07:54:38.103Z,6.07
2023-01-09T07:55:34.952Z,6.06
2023-01-09T07:56:31.624Z,6.04
2023-01-09T07:57:29.896Z,6.04
2023-01-09T07:58:26.637Z,6.03
2023-01-09T07:59:23.479Z,6.07
2023-01-09T08:00:21.297Z,6.12
2023-01-09T08:01:18.189Z,6.09
2023-01-09T08:02:14.972Z,6.10
2023-01-09T08:03:12.080Z,6.12
2023-01-09T08:04:08.863Z,6.13
2023-01-09T08:05:06.191Z,6.13
2023-01-09T08:06:03.031Z,6.12
2023-01-09T08:06:59.823Z,6.14
2023-01-09T08:07:56.503Z,6.15
2023-01-09T08:08:53.252Z,6.15
2023-01-09T08:09:50.006Z,6.11
2023-01-09T08:10:46.805Z,6.12
2023-01-09T08:11:43.610Z,6.15
2023-01-09T08:12:43.648Z,6.21
2023-01-09T08:13:40.513Z,6.20
2023-01-09T08:14:37.322Z,6.16
2023-01-09T08:15:34.508Z,6.12
2023-01-09T08:16:31.304Z,6.06
2023-01-09T08:17:27.931Z,6.07
2023-01-09T08:18:24.662Z,6.10
2023-01-09T08:19:21.569Z,6.09
2023-01-09T08:20:18.705Z,6.12
2023-01-09T08:21:16.111Z,6.14
2023-01-09T08:22:12.756Z,6.13
2023-01-09T08:23:09.627Z,6.16
2023-01-09T08:24:06.778Z,6.15
2023-01-09T08:25:03.746Z,6.21
2023-01-09T08:26:00.551Z,6.20
2023-01-09T08:26:57.462Z,6.22
2023-01-09T08:27:54.290Z,6.26
2023-01-09T08:28:51.107Z,6.26
2023-01-09T08:29:47.980Z,6.23
2023-01-09T08:30:45.078Z,6.26
2023-01-09T08:31:56.326Z,6.33
2023-01-09T08:33:02.632Z,6.42
2023-01-09T08:34:04.558Z,6.46
2023-01-09T08:35:03.140Z,6.44
2023-01-09T08:36:00.811Z,6.43
2023-01-09T08:36:58.955Z,6.41
2023-01-09T08:37:55.754Z,6.31
2023-01-09T08:39:00.813Z,6.27
2023-01-09T08:40:00.710Z,6.30
2023-01-09T08:40:57.443Z,6.32
2023-01-09T08:42:14.558Z,6.36
2023-01-09T08:43:29.856Z,6.30
2023-01-09T08:44:45.113Z,6.26
2023-01-09T08:46:00.464Z,6.26
2023-01-09T08:47:06.021Z,6.22
2023-01-09T08:48:02.744Z,6.28
2023-01-09T08:49:03.604Z,6.31
2023-01-09T08:50:01.078Z,6.32
2023-01-09T08:50:57.931Z,6.29
2023-01-09T08:51:54.679Z,6.34
2023-01-09T08:52:51.320Z,6.24
2023-01-09T08:53:48.098Z,6.29
2023-01-09T08:54:44.826Z,6.35
2023-01-09T08:55:42.282Z,6.37
2023-01-09T08:56:38.938Z,6.42
2023-01-09T08:57:35.810Z,6.38
2023-01-09T08:58:32.910Z,6.37
2023-01-09T08:59:29.622Z,6.34
2023-01-09T09:00:26.673Z,6.37
2023-01-09T09:01:23.546Z,6.35
2023-01-09T09:02:20.465Z,6.38
2023-01-09T09:03:17.588Z,6.37
2023-01-09T09:04:14.399Z,6.47
2023-01-09T09:05:11.313Z,6.62
2023-01-09T09:06:08.193Z,6.69
2023-01-09T09:07:04.867Z,6.70
2023-01-09T09:08:02.713Z,6.70
2023-01-09T09:09:03.278Z,6.60
2023-01-09T09:10:00.291Z,6.60
2023-01-09T09:10:57.579Z,6.62
2023-01-09T09:11:54.356Z,6.65
2023-01-09T09:12:51.991Z,6.56
2023-01-09T09:13:48.680Z,6.54
2023-01-09T09:15:03.663Z,6.58
2023-01-09T09:16:01.938Z,6.53
2023-01-09T09:16:58.625Z,6.53
2023-01-09T09:18:02.206Z,6.41
2023-01-09T09:18:58.908Z,6.38
2023-01-09T09:19:55.625Z,6.32
2023-01-09T09:20:52.388Z,6.30
2023-01-09T09:21:49.158Z,6.28
2023-01-09T09:22:47.010Z,6.31
2023-01-09T09:23:44.516Z,6.33
2023-01-09T09:24:41.261Z,6.35
2023-01-09T09:25:41.133Z,6.42
2023-01-09T09:26:38.022Z,6.47
2023-01-09T09:27:36.691Z,6.53
2023-01-09T09:28:39.346Z,6.55
2023-01-09T09:29:36.353Z,6.48
2023-01-09T09:30:33.529Z,6.42
2023-01-09T09:31:30.307Z,6.39
2023-01-09T09:32:27.073Z,6.37
2023-01-09T09:33:23.871Z,6.34
2023-01-09T09:34:20.524Z,6.33
2023-01-09T09:35:21.212Z,6.37
2023-01-09T09:36:17.974Z,6.41
2023-01-09T09:37:14.951Z,6.42
2023-01-09T09:38:11.771Z,6.39
2023-01-09T09:39:09.341Z,6.40
2023-01-09T09:40:17.904Z,6.36
2023-01-09T09:41:46.721Z,6.31
2023-01-09T09:43:33.115Z,6.26
2023-01-09T09:44:54.572Z,6.28
2023-01-09T09:45:56.908Z,6.34
2023-01-09T09:47:02.616Z,6.42
2023-01-09T09:48:07.110Z,6.50
2023-01-09T09:49:12.367Z,6.59
2023-01-09T09:50:27.661Z,6.69
2023-01-09T09:51:42.813Z,6.60
2023-01-09T09:52:47.968Z,6.58
2023-01-09T09:53:47.450Z,6.51
2023-01-09T09:54:49.163Z,6.51
2023-01-09T09:55:45.921Z,6.58
2023-01-09T09:56:48.361Z,6.66
2023-01-09T09:57:45.316Z,6.77
2023-01-09T09:58:51.020Z,6.79
2023-01-09T09:59:51.206Z,6.76
2023-01-09T10:00:51.790Z,6.75
2023-01-09T10:02:28.679Z,6.86
2023-01-09T10:03:34.109Z,6.96
2023-01-09T10:04:32.882Z,7.01
2023-01-09T10:05:42.184Z,7.07
2023-01-09T10:06:46.177Z,7.01
2023-01-09T10:07:48.554Z,6.94
2023-01-09T10:09:18.859Z,6.86
2023-01-09T10:10:20.283Z,6.83
2023-01-09T10:11:31.085Z,6.86
2023-01-09T10:12:46.313Z,6.76
2023-01-09T10:14:04.245Z,6.65
2023-01-09T10:15:09.829Z,6.66
2023-01-09T10:16:09.473Z,6.70
2023-01-09T10:17:30.703Z,6.58
2023-01-09T10:18:43.894Z,6.54
2023-01-09T10:19:55.920Z,6.56
2023-01-09T10:21:03.681Z,6.52
2023-01-09T10:22:28.491Z,6.58
2023-01-09T10:23:46.431Z,6.55
2023-01-09T10:24:52.261Z,6.59
2023-01-09T10:25:56.838Z,6.62
2023-01-09T10:26:57.159Z,6.68
2023-01-09T10:28:44.257Z,6.65
2023-01-09T10:30:09.413Z,6.67
2023-01-09T10:31:44.425Z,6.65
2023-01-09T10:33:25.098Z,6.66
2023-01-09T10:34:30.720Z,6.80
2023-01-09T10:35:47.057Z,6.87
2023-01-09T10:36:56.746Z,6.98
2023-01-09T10:37:53.578Z,6.97
2023-01-09T10:38:51.792Z,6.98
2023-01-09T10:40:02.260Z,6.82
2023-01-09T10:41:06.207Z,6.65
2023-01-09T10:42:32.095Z,6.47
2023-01-09T10:43:36.261Z,6.38
2023-01-09T10:44:38.978Z,6.37
2023-01-09T10:45:44.396Z,6.37
2023-01-09T10:46:44.043Z,6.32
2023-01-09T10:47:42.826Z,6.34
2023-01-09T10:48:42.873Z,6.22
2023-01-09T10:49:39.733Z,6.22
2023-01-09T10:50:37.800Z,6.19
2023-01-09T10:51:44.284Z,6.14
2023-01-09T10:52:41.093Z,6.12
2023-01-09T10:53:42.822Z,6.01
2023-01-09T10:54:48.724Z,5.83
2023-01-09T10:55:47.784Z,5.68
2023-01-09T10:56:58.305Z,5.64
2023-01-09T10:57:58.483Z,5.64
2023-01-09T10:58:55.670Z,5.62
2023-01-09T10:59:55.238Z,5.57
2023-01-09T11:00:52.316Z,5.54
2023-01-09T11:01:49.251Z,5.52
2023-01-09T11:02:46.390Z,5.48
2023-01-09T11:03:43.164Z,5.45
2023-01-09T11:04:43.602Z,5.44
2023-01-09T11:05:40.366Z,5.45
2023-01-09T11:06:49.003Z,5.43
2023-01-09T11:07:57.191Z,5.45
2023-01-09T11:08:56.215Z,5.38
2023-01-09T11:10:05.667Z,5.37
2023-01-09T11:11:03.348Z,5.27
2023-01-09T11:12:00.456Z,5.24
2023-01-09T11:13:18.459Z,5.20
2023-01-09T11:14:27.724Z,5.17
2023-01-09T11:15:31.906Z,5.08
2023-01-09T11:16:28.690Z,5.06
2023-01-09T11:17:28.707Z,5.05
2023-01-09T11:18:25.378Z,5.04
2023-01-09T11:19:22.692Z,5.05
2023-01-09T11:20:25.985Z,5.05
2023-01-09T11:21:25.223Z,5.03
2023-01-09T11:22:22.035Z,5.02
2023-01-09T11:23:32.198Z,5.05
2023-01-09T11:24:31.002Z,4.99
2023-01-09T11:25:28.642Z,5.01
2023-01-09T11:26:26.951Z,5.02
2023-01-09T11:27:24.562Z,5.08
2023-01-09T11:28:21.179Z,5.07
2023-01-09T11:29:19.395Z,5.15
2023-01-09T11:30:20.324Z,5.26
2023-01-09T11:31:17.121Z,5.30
2023-01-09T11:32:22.427Z,5.33
2023-01-09T11:33:26.603Z,5.34
2023-01-09T11:34:26.001Z,5.39
2023-01-09T11:35:27.213Z,5.42
2023-01-09T11:36:24.457Z,5.42
2023-01-09T11:37:26.180Z,5.46
2023-01-09T11:38:22.900Z,5.55
2023-01-09T11:39:27.112Z,5.60
2023-01-09T11:40:23.771Z,5.63
2023-01-09T11:41:22.335Z,5.64
2023-01-09T11:42:41.445Z,5.59
2023-01-09T11:43:40.104Z,5.63
2023-01-09T11:44:37.081Z,5.70
2023-01-09T11:45:34.569Z,5.74
2023-01-09T11:46:37.626Z,5.91
2023-01-09T11:47:39.850Z,5.92
2023-01-09T11:48:38.769Z,6.05
2023-01-09T11:49:35.548Z,6.31
2023-01-09T11:50:32.657Z,6.59
2023-01-09T11:51:34.032Z,6.89
2023-01-09T11:52:30.820Z,7.28
2023-01-09T11:53:27.696Z,7.63
2023-01-09T11:54:26.417Z,7.66
2023-01-09T11:55:27.254Z,7.93
2023-01-09T11:56:26.585Z,7.75
2023-01-09T11:57:23.798Z,7.56
2023-01-09T11:58:21.782Z,7.59
2023-01-09T11:59:19.865Z,7.86
2023-01-09T12:00:28.090Z,8.19
2023-01-09T12:01:33.854Z,8.30
2023-01-09T12:02:53.563Z,8.05
2023-01-09T12:03:53.258Z,7.82
2023-01-09T12:05:16.102Z,7.61
2023-01-09T12:06:27.587Z,7.46
2023-01-09T12:07:44.385Z,7.03
2023-01-09T12:08:55.810Z,7.00
2023-01-09T12:10:05.826Z,6.96
2023-01-09T12:11:43.892Z,7.06
2023-01-09T12:13:01.678Z,7.05
2023-01-09T12:14:29.525Z,6.92
2023-01-09T12:15:35.575Z,6.76
2023-01-09T12:16:46.861Z,6.44
2023-01-09T12:18:01.537Z,6.44
2023-01-09T12:19:21.317Z,6.46
2023-01-09T12:20:29.828Z,6.50
2023-01-09T12:21:36.753Z,6.55
2023-01-09T12:22:48.747Z,6.56
2023-01-09T12:24:08.545Z,6.63
2023-01-09T12:25:26.618Z,6.72
2023-01-09T12:26:37.133Z,6.76
2023-01-09T12:27:53.002Z,6.72
2023-01-09T12:29:24.083Z,6.63
2023-01-09T12:30:31.840Z,6.49
2023-01-09T12:31:28.487Z,6.35
2023-01-09T12:32:48.507Z,6.35
2023-01-09T12:33:48.273Z,6.35
2023-01-09T12:35:07.181Z,6.34
2023-01-09T12:36:30.142Z,6.32
2023-01-09T12:37:51.612Z,6.32
2023-01-09T12:38:51.698Z,6.36
2023-01-09T12:40:28.165Z,6.59
2023-01-09T12:41:55.005Z,6.75
2023-01-09T12:43:25.366Z,6.68
2023-01-09T12:44:35.915Z,6.66
2023-01-09T12:45:34.717Z,6.65
2023-01-09T12:47:08.998Z,6.65
2023-01-09T12:48:40.513Z,6.62
2023-01-09T12:49:54.633Z,6.64
2023-01-09T12:51:07.523Z,6.53
2023-01-09T12:52:09.093Z,6.40
2023-01-09T12:53:17.410Z,6.29
2023-01-09T12:54:19.915Z,6.24
2023-01-09T12:55:21.070Z,6.21
2023-01-09T12:56:37.952Z,6.22
2023-01-09T12:57:44.965Z,6.22
2023-01-09T12:58:44.829Z,6.21
2023-01-09T12:59:42.624Z,6.22
2023-01-09T13:00:42.414Z,6.20
2023-01-09T13:01:42.669Z,6.20
2023-01-09T13:02:42.361Z,6.18
2023-01-09T13:03:49.314Z,6.16
2023-01-09T13:04:57.347Z,6.14
2023-01-09T13:05:54.054Z,6.07
2023-01-09T13:06:53.166Z,6.08
2023-01-09T13:07:53.997Z,6.15
2023-01-09T13:09:01.897Z,6.15
2023-01-09T13:10:01.938Z,6.22
2023-01-09T13:11:19.860Z,6.21
2023-01-09T13:12:21.713Z,6.21
2023-01-09T13:13:39.695Z,6.23
2023-01-09T13:14:49.668Z,6.29
2023-01-09T13:15:48.580Z,6.29
2023-01-09T13:16:48.303Z,6.35
2023-01-09T13:17:50.463Z,6.39
2023-01-09T13:18:57.606Z,6.38
2023-01-09T13:19:54.323Z,6.37
2023-01-09T13:20:53.501Z,6.36
2023-01-09T13:21:51.110Z,6.30
2023-01-09T13:22:50.913Z,6.32
2023-01-09T13:24:10.972Z,6.37
2023-01-09T13:25:32.561Z,6.52
2023-01-09T13:26:31.461Z,6.55
2023-01-09T13:27:28.082Z,6.50
2023-01-09T13:28:31.425Z,6.48
2023-01-09T13:29:33.144Z,6.41